Lancaster, PA (17573)

4:16 PM EDT on March 28, 2017 (GMT -0400)
Willow Acres | | Change Station

Elev 120 ft 40.03 °N, 76.20 °W | Updated 19 seconds ago

Overcast
Overcast
54.7 °F
Feels Like 54.7 °F
N
2.0
Wind Variable Wind from North

Today
High -- | Low -- °F
--% Chance of Precip.
Yesterday
High -- | Low -- °F
Precip. -- in
Pressure 29.84 in
Visibility 7.0 miles
Clouds Overcast 600 ft
Dew Point 52 °F
Humidity 91%
Rainfall 0.36 in
Snow Depth Not available.
6:54 AM 7:25 PM
New Moon, 1% visible
METAR KLNS 281953Z 36004KT 7SM -RA OVC006 13/12 A2984 RMK AO2 RAB11 SLP104 P0000 T01280122
Pressure 29.84 in
Visibility 7.0 miles
Clouds Overcast 600 ft
Dew Point 52 °F
Humidity 91%
Rainfall 0.36 in
Snow Depth Not available.
6:54 AM 7:25 PM
New Moon, 1% visible
METAR KLNS 281953Z 36004KT 7SM -RA OVC006 13/12 A2984 RMK AO2 RAB11 SLP104 P0000 T01280122

Get Severe Weather Alerts

Thanks for signing up!

Be on the lookout for a verification email in your inbox.

You'll start receiving the daily forecast at 8 AM.

×

10-Day Weather Forecast

Almanac

Astronomy

Mar. 28, 2017 Rise Set
Actual Time
Civil Twilight
Nautical Twilight
Astronomical Twilight
Moon
Length of Visible Light
Length of Day
Tomorrow will be .
, % of the Moon is Illuminated

Today's Extremes

State Highs State Lows

Community

WunderPhotos

Upload Photos

1,962,540 photos uploaded!

WunderBlog® & News

Nearby

Air Quality

  Air Quality AQ Index Pollutant
Not available.

Snow Depth

Station Depth Elevation

Earthquake Activity

City Distance Mag. Time & Date
Minimum magnitude displayed is 2.5.

Earthquake Activity

City Distance Mag. Time & Date
Minimum magnitude displayed is 2.5.

Coastal Water Temperatures

Place Temperature

Stations

Nearby Weather Stations

Station Location Temp. Windchill Dew Point Humidity Wind Precip. Elev Updated Type
                   

Watches & Warnings

There are currently no watches in effect.